createdAt,value
2023-03-16T00:01:08.684Z,74.72
2023-03-16T00:03:36.501Z,73.86
2023-03-16T00:06:03.740Z,74.49
2023-03-16T00:08:30.335Z,74.86
2023-03-16T00:10:57.233Z,75.06
2023-03-16T00:13:24.849Z,75.37
2023-03-16T00:15:55.683Z,75.75
2023-03-16T00:18:27.213Z,75.77
2023-03-16T00:20:58.909Z,75.68
2023-03-16T00:23:29.310Z,76.68
2023-03-16T00:25:59.787Z,76.31
2023-03-16T00:28:27.917Z,76.66
2023-03-16T00:30:59.197Z,77.04
2023-03-16T00:33:26.859Z,77.22
2023-03-16T00:36:02.130Z,76.74
2023-03-16T00:38:32.171Z,76.83
2023-03-16T00:40:58.952Z,76.31
2023-03-16T00:43:27.233Z,76.81
2023-03-16T00:46:06.929Z,78.22
2023-03-16T00:48:35.247Z,79.11
2023-03-16T00:51:07.892Z,78.84
2023-03-16T00:53:36.161Z,79.18
2023-03-16T00:56:04.489Z,79.64
2023-03-16T00:58:36.065Z,79.88
2023-03-16T01:01:04.791Z,79.95
2023-03-16T01:03:32.471Z,79.92
2023-03-16T01:06:04.600Z,79.82
2023-03-16T01:08:33.080Z,80.47
2023-03-16T01:11:06.213Z,80.38
2023-03-16T01:13:33.010Z,80.30
2023-03-16T01:16:00.434Z,80.86
2023-03-16T01:18:28.387Z,79.92
2023-03-16T01:20:54.989Z,80.21
2023-03-16T01:23:23.087Z,79.62
2023-03-16T01:25:58.609Z,79.64
2023-03-16T01:28:28.309Z,79.54
2023-03-16T01:31:04.157Z,79.42
2023-03-16T01:33:33.650Z,79.27
2023-03-16T01:36:04.170Z,79.75
2023-03-16T01:38:39.666Z,80.04
2023-03-16T01:41:07.582Z,80.15
2023-03-16T01:43:37.521Z,79.94
2023-03-16T01:46:07.275Z,80.03
2023-03-16T01:48:45.657Z,79.63
2023-03-16T01:51:21.286Z,80.11
2023-03-16T01:53:53.012Z,79.78
2023-03-16T01:56:25.745Z,79.85
2023-03-16T01:58:58.664Z,80.13
2023-03-16T02:01:29.196Z,81.17
2023-03-16T02:04:29.262Z,80.56
2023-03-16T02:07:00.404Z,80.40
2023-03-16T02:09:29.750Z,80.04
2023-03-16T02:11:57.175Z,80.63
2023-03-16T02:14:25.600Z,80.83
2023-03-16T02:16:52.800Z,81.10
2023-03-16T02:19:35.580Z,81.44
2023-03-16T02:22:06.607Z,81.34
2023-03-16T02:24:34.735Z,81.97
2023-03-16T02:27:06.586Z,82.06
2023-03-16T02:29:44.942Z,82.45
2023-03-16T02:32:13.716Z,82.33
2023-03-16T02:34:42.112Z,82.29
2023-03-16T02:37:10.371Z,82.35
2023-03-16T02:39:36.990Z,82.75
2023-03-16T02:42:04.957Z,82.38
2023-03-16T02:44:35.209Z,82.54
2023-03-16T02:47:11.367Z,81.98
2023-03-16T02:49:41.424Z,81.42
2023-03-16T02:52:08.944Z,80.90
2023-03-16T02:54:35.864Z,80.65
2023-03-16T02:57:02.924Z,80.18
2023-03-16T02:59:31.292Z,79.39
2023-03-16T03:02:04.203Z,79.66
2023-03-16T03:04:33.076Z,79.42
2023-03-16T03:07:04.739Z,79.54
2023-03-16T03:09:35.863Z,78.84
2023-03-16T03:12:02.681Z,78.96
2023-03-16T03:14:29.533Z,78.56
2023-03-16T03:16:57.216Z,78.18
2023-03-16T03:19:24.249Z,78.28
2023-03-16T03:21:51.030Z,78.15
2023-03-16T03:24:18.751Z,77.70
2023-03-16T03:26:47.132Z,77.48
2023-03-16T03:29:19.614Z,78.27
2023-03-16T03:31:46.271Z,78.38
2023-03-16T03:34:13.762Z,78.50
2023-03-16T03:36:41.511Z,78.22
2023-03-16T03:39:08.200Z,78.58
2023-03-16T03:41:36.141Z,78.61
2023-03-16T03:44:04.489Z,78.90
2023-03-16T03:46:31.502Z,79.33
2023-03-16T03:49:03.626Z,79.34
2023-03-16T03:51:33.153Z,79.72
2023-03-16T03:54:09.581Z,79.11
2023-03-16T03:56:45.547Z,79.74
2023-03-16T03:59:15.437Z,79.19
2023-03-16T04:02:03.266Z,79.09
2023-03-16T04:04:57.666Z,79.11
2023-03-16T04:07:24.286Z,79.72
2023-03-16T04:09:54.461Z,79.47
2023-03-16T04:12:29.032Z,78.85
2023-03-16T04:14:56.274Z,79.04
2023-03-16T04:17:24.261Z,79.12
2023-03-16T04:19:52.094Z,79.26
2023-03-16T04:22:19.215Z,79.38
2023-03-16T04:24:47.631Z,79.31
2023-03-16T04:27:14.465Z,79.03
2023-03-16T04:29:41.199Z,79.21
2023-03-16T04:32:08.132Z,79.72
2023-03-16T04:34:35.965Z,80.41
2023-03-16T04:37:05.598Z,79.80
2023-03-16T04:39:34.612Z,80.50
2023-03-16T04:42:01.745Z,80.99
2023-03-16T04:44:28.519Z,81.19
2023-03-16T04:46:55.829Z,81.04
2023-03-16T04:49:24.846Z,81.52
2023-03-16T04:51:51.481Z,82.06
2023-03-16T04:54:19.672Z,82.12
2023-03-16T04:56:46.335Z,82.90
2023-03-16T04:59:27.574Z,82.58
2023-03-16T05:02:05.454Z,82.71
2023-03-16T05:04:34.497Z,82.88
2023-03-16T05:07:02.204Z,82.62
2023-03-16T05:09:33.751Z,83.22
2023-03-16T05:12:00.738Z,83.24
2023-03-16T05:14:27.520Z,83.70
2023-03-16T05:17:33.134Z,84.20
2023-03-16T05:19:59.774Z,83.90
2023-03-16T05:22:27.443Z,83.97
2023-03-16T05:25:15.143Z,84.09
2023-03-16T05:27:46.510Z,84.12
2023-03-16T05:30:20.030Z,84.57
2023-03-16T05:32:47.278Z,84.43
2023-03-16T05:35:14.341Z,84.91
2023-03-16T05:37:42.077Z,85.37
2023-03-16T05:40:17.814Z,85.58
2023-03-16T05:42:55.552Z,86.25
2023-03-16T05:45:24.227Z,86.73
2023-03-16T05:48:05.720Z,86.72
2023-03-16T05:50:35.169Z,86.42
2023-03-16T05:53:01.854Z,87.16
2023-03-16T05:55:29.384Z,87.40
2023-03-16T05:57:59.930Z,86.71
2023-03-16T06:00:27.804Z,86.92
2023-03-16T06:03:05.912Z,86.78
2023-03-16T06:05:35.287Z,86.88
2023-03-16T06:08:03.066Z,86.74
2023-03-16T06:10:30.680Z,86.22
2023-03-16T06:12:58.996Z,85.61
2023-03-16T06:15:26.797Z,85.87
2023-03-16T06:17:54.742Z,85.70
2023-03-16T06:20:21.930Z,85.25
2023-03-16T06:22:48.849Z,85.54
2023-03-16T06:25:16.798Z,86.22
2023-03-16T06:27:45.775Z,86.46
2023-03-16T06:30:16.874Z,86.54
2023-03-16T06:32:45.721Z,86.22
2023-03-16T06:35:13.196Z,86.32
2023-03-16T06:37:45.128Z,85.84
2023-03-16T06:40:32.001Z,85.67
2023-03-16T06:42:58.759Z,85.37
2023-03-16T06:45:25.748Z,84.77
2023-03-16T06:47:54.645Z,84.60
2023-03-16T06:50:21.262Z,84.21
2023-03-16T06:52:47.918Z,84.02
2023-03-16T06:55:14.815Z,83.86
2023-03-16T06:57:45.175Z,83.31
2023-03-16T07:00:15.420Z,82.84
2023-03-16T07:02:43.566Z,82.52
2023-03-16T07:05:20.737Z,82.43
2023-03-16T07:07:48.044Z,81.70
2023-03-16T07:10:17.577Z,81.47
2023-03-16T07:12:44.886Z,80.26
2023-03-16T07:15:12.771Z,81.06
2023-03-16T07:17:40.219Z,80.92
2023-03-16T07:20:10.745Z,80.88
2023-03-16T07:22:39.543Z,80.63
2023-03-16T07:25:09.014Z,80.73
2023-03-16T07:27:35.633Z,80.02
2023-03-16T07:30:06.105Z,78.50
2023-03-16T07:32:36.791Z,78.64
2023-03-16T07:35:04.166Z,76.96
2023-03-16T07:37:32.409Z,76.76
2023-03-16T07:40:00.846Z,76.06
2023-03-16T07:42:27.637Z,75.40
2023-03-16T07:45:08.276Z,74.18
2023-03-16T07:47:35.252Z,73.00
2023-03-16T07:50:11.486Z,72.67
2023-03-16T07:52:41.815Z,72.42
2023-03-16T07:55:10.377Z,71.73
2023-03-16T07:57:37.017Z,71.92
2023-03-16T08:00:05.295Z,71.47
2023-03-16T08:02:39.977Z,71.54
2023-03-16T08:05:18.345Z,71.58
2023-03-16T08:07:49.155Z,71.26
2023-03-16T08:10:20.033Z,70.29
2023-03-16T08:12:53.947Z,70.23
2023-03-16T08:15:21.742Z,69.94
2023-03-16T08:17:50.754Z,70.26
2023-03-16T08:20:22.755Z,69.62
2023-03-16T08:22:49.648Z,69.96
2023-03-16T08:25:19.993Z,70.98
2023-03-16T08:27:58.813Z,70.42
2023-03-16T08:30:26.906Z,69.71
2023-03-16T08:33:10.525Z,69.15
2023-03-16T08:35:37.171Z,68.78
2023-03-16T08:38:03.796Z,69.15
2023-03-16T08:40:30.810Z,69.63
2023-03-16T08:42:58.938Z,67.78
2023-03-16T08:45:25.945Z,66.43
2023-03-16T08:47:53.771Z,65.81
2023-03-16T08:50:20.872Z,66.14
2023-03-16T08:52:49.116Z,65.86
2023-03-16T08:55:16.255Z,65.72
2023-03-16T08:57:45.151Z,64.90
2023-03-16T09:00:14.064Z,64.84
2023-03-16T09:02:53.260Z,64.33
2023-03-16T09:05:19.813Z,64.75
2023-03-16T09:07:48.883Z,65.05
2023-03-16T09:10:16.427Z,64.79
2023-03-16T09:12:43.828Z,64.92
2023-03-16T09:15:12.280Z,63.58
2023-03-16T09:17:39.860Z,66.13
2023-03-16T09:20:21.943Z,64.63
2023-03-16T09:22:49.223Z,63.97
2023-03-16T09:25:16.125Z,62.52
2023-03-16T09:27:42.819Z,62.61
2023-03-16T09:30:10.429Z,61.17
2023-03-16T09:32:37.525Z,61.33
2023-03-16T09:35:06.317Z,60.77
2023-03-16T09:37:44.761Z,59.72
2023-03-16T09:40:21.754Z,60.61
2023-03-16T09:43:13.240Z,61.19
2023-03-16T09:45:53.644Z,60.86
2023-03-16T09:48:21.484Z,58.72
2023-03-16T09:50:49.840Z,59.83
2023-03-16T09:53:27.833Z,61.69
2023-03-16T09:56:01.934Z,59.55
2023-03-16T09:58:28.545Z,60.50
2023-03-16T10:01:03.487Z,59.71
2023-03-16T10:04:01.877Z,60.63
2023-03-16T10:06:28.898Z,58.50
2023-03-16T10:09:15.371Z,55.40
2023-03-16T10:11:46.386Z,57.65
2023-03-16T10:14:23.680Z,56.87
2023-03-16T10:16:56.824Z,58.26
2023-03-16T10:19:39.270Z,56.92
2023-03-16T10:22:19.806Z,55.94
2023-03-16T10:25:20.675Z,57.61
2023-03-16T10:27:48.210Z,59.82
2023-03-16T10:30:28.695Z,55.56
2023-03-16T10:33:00.528Z,58.58
2023-03-16T10:35:30.735Z,56.71
2023-03-16T10:37:58.655Z,56.53
2023-03-16T10:40:26.400Z,57.40
2023-03-16T10:42:53.883Z,56.03
2023-03-16T10:45:27.417Z,57.31
2023-03-16T10:48:04.891Z,57.50
2023-03-16T10:50:32.825Z,58.12
2023-03-16T10:53:01.567Z,58.61
2023-03-16T10:55:40.878Z,58.88
2023-03-16T10:58:09.320Z,58.45
2023-03-16T11:00:42.120Z,58.72
2023-03-16T11:03:32.470Z,58.96
2023-03-16T11:06:05.473Z,57.74
2023-03-16T11:08:34.931Z,57.62
2023-03-16T11:11:10.019Z,57.23
2023-03-16T11:13:39.236Z,57.63
2023-03-16T11:16:14.592Z,58.75
2023-03-16T11:18:45.109Z,58.34
2023-03-16T11:21:22.370Z,58.96
2023-03-16T11:23:55.157Z,56.19
2023-03-16T11:26:33.437Z,55.25
2023-03-16T11:29:17.817Z,56.97
2023-03-16T11:31:51.037Z,56.67
2023-03-16T11:34:21.746Z,56.85
2023-03-16T11:36:56.030Z,57.32
2023-03-16T11:39:57.616Z,57.79
2023-03-16T11:42:39.440Z,58.76
2023-03-16T11:45:15.332Z,58.37
2023-03-16T11:48:01.387Z,59.00
2023-03-16T11:50:49.845Z,58.93
2023-03-16T11:53:38.453Z,60.18
2023-03-16T11:56:38.932Z,59.76
2023-03-16T11:59:14.343Z,58.13
2023-03-16T12:02:06.413Z,59.32
2023-03-16T12:04:51.121Z,59.90
2023-03-16T12:07:43.720Z,59.75
2023-03-16T12:10:26.614Z,60.07
2023-03-16T12:13:08.613Z,61.46
2023-03-16T12:15:42.555Z,59.94
2023-03-16T12:18:18.254Z,59.33
2023-03-16T12:20:53.941Z,60.05
2023-03-16T12:23:28.938Z,59.31
2023-03-16T12:25:59.951Z,57.86
2023-03-16T12:28:29.252Z,55.99
2023-03-16T12:31:03.422Z,60.72
2023-03-16T12:33:48.572Z,57.63
2023-03-16T12:36:34.225Z,58.47
2023-03-16T12:39:13.709Z,57.50
2023-03-16T12:42:26.150Z,57.45
2023-03-16T12:45:13.054Z,56.22
2023-03-16T12:48:18.605Z,56.92
2023-03-16T12:50:55.192Z,56.78
2023-03-16T12:53:27.082Z,59.16
2023-03-16T12:55:53.981Z,58.12
2023-03-16T12:58:24.026Z,55.46
2023-03-16T13:01:00.124Z,53.81
2023-03-16T13:03:28.498Z,52.76
2023-03-16T13:05:59.510Z,52.78
2023-03-16T13:08:28.937Z,57.41
2023-03-16T13:11:06.174Z,57.51
2023-03-16T13:13:34.179Z,58.31
2023-03-16T13:16:10.279Z,57.32
2023-03-16T13:18:44.617Z,58.08
2023-03-16T13:21:21.500Z,57.70
2023-03-16T13:24:14.728Z,55.94
2023-03-16T13:26:45.404Z,55.77
2023-03-16T13:29:27.414Z,57.70
2023-03-16T13:31:59.222Z,54.47
2023-03-16T13:34:37.586Z,56.46
2023-03-16T13:37:04.534Z,54.79
2023-03-16T13:39:33.696Z,56.70
2023-03-16T13:42:17.924Z,55.94
2023-03-16T13:44:45.716Z,55.69
2023-03-16T13:47:14.842Z,57.12
2023-03-16T13:49:55.767Z,56.83
2023-03-16T13:52:34.399Z,57.89
2023-03-16T13:55:15.584Z,58.00
2023-03-16T13:57:44.254Z,58.53
2023-03-16T14:00:22.058Z,58.22
2023-03-16T14:03:17.853Z,58.47
2023-03-16T14:05:45.416Z,57.88
2023-03-16T14:08:18.121Z,59.06
2023-03-16T14:10:45.615Z,58.51
2023-03-16T14:13:32.595Z,58.19
2023-03-16T14:16:02.844Z,57.48
2023-03-16T14:18:36.211Z,59.19
2023-03-16T14:21:09.811Z,59.67
2023-03-16T14:23:47.691Z,59.88
2023-03-16T14:26:18.761Z,60.39
2023-03-16T14:29:04.553Z,60.27
2023-03-16T14:31:36.629Z,61.42
2023-03-16T14:34:19.945Z,59.37
2023-03-16T14:36:46.955Z,58.92
2023-03-16T14:39:17.321Z,59.74
2023-03-16T14:41:45.263Z,59.50
2023-03-16T14:44:24.853Z,59.43
2023-03-16T14:46:54.149Z,59.74
2023-03-16T14:49:37.392Z,58.85
2023-03-16T14:52:25.519Z,58.14
2023-03-16T14:54:52.334Z,58.86
2023-03-16T14:57:19.597Z,58.98
2023-03-16T14:59:46.737Z,58.59
2023-03-16T15:02:38.589Z,57.60
2023-03-16T15:05:23.895Z,57.84
2023-03-16T15:07:54.926Z,57.06
2023-03-16T15:10:25.494Z,57.74
2023-03-16T15:13:04.100Z,57.41
2023-03-16T15:15:31.599Z,57.21
2023-03-16T15:17:59.261Z,56.63
2023-03-16T15:20:31.748Z,58.19
2023-03-16T15:22:59.907Z,56.94
2023-03-16T15:25:38.354Z,57.21
2023-03-16T15:28:22.685Z,57.85
2023-03-16T15:30:52.563Z,58.41
2023-03-16T15:33:19.731Z,58.44
2023-03-16T15:35:49.234Z,58.81
2023-03-16T15:38:20.510Z,58.35
2023-03-16T15:40:48.053Z,58.79
2023-03-16T15:43:18.257Z,59.27
2023-03-16T15:45:46.032Z,59.13
2023-03-16T15:48:13.264Z,59.61
2023-03-16T15:50:44.213Z,59.60
2023-03-16T15:53:30.617Z,59.81
2023-03-16T15:56:04.678Z,60.54
2023-03-16T15:58:34.062Z,60.61
2023-03-16T16:01:02.834Z,60.67
2023-03-16T16:03:30.183Z,60.04
2023-03-16T16:05:57.110Z,60.31
2023-03-16T16:08:23.777Z,60.86
2023-03-16T16:10:53.189Z,60.42
2023-03-16T16:13:31.187Z,60.71
2023-03-16T16:16:04.666Z,60.05
2023-03-16T16:18:36.517Z,59.79
2023-03-16T16:21:05.558Z,60.09
2023-03-16T16:23:32.988Z,60.12
2023-03-16T16:26:12.617Z,59.99
2023-03-16T16:28:39.310Z,59.91
2023-03-16T16:31:13.298Z,60.14
2023-03-16T16:33:40.251Z,60.60
2023-03-16T16:36:14.358Z,60.93
2023-03-16T16:38:41.488Z,61.04
2023-03-16T16:41:09.599Z,61.32
2023-03-16T16:43:46.946Z,61.44
2023-03-16T16:46:22.571Z,61.54
2023-03-16T16:49:01.817Z,61.64
2023-03-16T16:51:29.913Z,62.03
2023-03-16T16:53:58.480Z,62.58
2023-03-16T16:56:31.858Z,62.80
2023-03-16T16:59:01.652Z,63.28
2023-03-16T17:01:33.109Z,63.29
2023-03-16T17:04:01.324Z,63.50
2023-03-16T17:06:28.918Z,63.69
2023-03-16T17:08:55.597Z,64.41
2023-03-16T17:11:27.497Z,64.10
2023-03-16T17:13:56.989Z,64.90
2023-03-16T17:16:25.887Z,64.93
2023-03-16T17:18:53.030Z,65.45
2023-03-16T17:21:23.863Z,65.09
2023-03-16T17:23:52.761Z,65.90
2023-03-16T17:26:26.189Z,65.66
2023-03-16T17:28:58.907Z,65.54
2023-03-16T17:31:27.860Z,65.56
2023-03-16T17:33:56.993Z,66.14
2023-03-16T17:36:24.494Z,65.76
2023-03-16T17:38:51.178Z,66.19
2023-03-16T17:41:26.653Z,66.02
2023-03-16T17:43:55.755Z,66.59
2023-03-16T17:46:25.138Z,65.99
2023-03-16T17:48:52.997Z,66.54
2023-03-16T17:51:21.251Z,66.55
2023-03-16T17:53:48.586Z,66.80
2023-03-16T17:56:21.196Z,66.16
2023-03-16T17:58:51.337Z,66.13
2023-03-16T18:01:22.153Z,66.37
2023-03-16T18:03:49.583Z,66.38
2023-03-16T18:06:20.373Z,66.67
2023-03-16T18:08:48.531Z,66.99
2023-03-16T18:11:21.649Z,66.88
2023-03-16T18:13:50.850Z,66.76
2023-03-16T18:16:24.852Z,66.69
2023-03-16T18:18:53.580Z,66.36
2023-03-16T18:21:23.179Z,66.53
2023-03-16T18:23:50.470Z,66.81
2023-03-16T18:26:18.972Z,66.37
2023-03-16T18:28:46.540Z,66.59
2023-03-16T18:31:22.541Z,66.40
2023-03-16T18:33:55.811Z,65.86
2023-03-16T18:36:27.978Z,66.22
2023-03-16T18:38:55.953Z,66.04
2023-03-16T18:41:33.523Z,65.97
2023-03-16T18:44:05.690Z,66.35
2023-03-16T18:46:37.176Z,66.27
2023-03-16T18:49:18.002Z,66.31
2023-03-16T18:51:49.098Z,66.36
2023-03-16T18:54:45.444Z,65.62
2023-03-16T18:57:38.833Z,66.30
2023-03-16T19:00:06.088Z,65.95
2023-03-16T19:02:49.319Z,66.37
2023-03-16T19:05:19.391Z,65.75
2023-03-16T19:07:48.746Z,66.08
2023-03-16T19:10:27.469Z,65.91
2023-03-16T19:12:55.079Z,66.01
2023-03-16T19:15:28.404Z,65.70
2023-03-16T19:17:55.283Z,65.69
2023-03-16T19:20:28.415Z,65.11
2023-03-16T19:23:07.520Z,64.95
2023-03-16T19:25:39.783Z,64.76
2023-03-16T19:28:07.722Z,63.99
2023-03-16T19:30:35.846Z,64.50
2023-03-16T19:33:02.541Z,63.41
2023-03-16T19:35:48.606Z,63.64
2023-03-16T19:38:16.623Z,62.71
2023-03-16T19:40:43.762Z,63.47
2023-03-16T19:43:18.637Z,62.72
2023-03-16T19:45:47.258Z,62.53
2023-03-16T19:48:22.676Z,62.46
2023-03-16T19:50:51.034Z,61.91
2023-03-16T19:53:22.618Z,61.73
2023-03-16T19:55:52.213Z,62.13
2023-03-16T19:58:39.324Z,61.72
2023-03-16T20:01:13.122Z,61.78
2023-03-16T20:03:39.781Z,62.13
2023-03-16T20:06:08.610Z,61.72
2023-03-16T20:08:35.217Z,62.09
2023-03-16T20:11:07.585Z,62.28
2023-03-16T20:13:35.384Z,62.06
2023-03-16T20:16:03.465Z,61.63
2023-03-16T20:18:30.191Z,62.18
2023-03-16T20:20:57.199Z,62.22
2023-03-16T20:23:26.036Z,62.11
2023-03-16T20:26:03.047Z,61.94
2023-03-16T20:28:37.112Z,61.71
2023-03-16T20:31:08.145Z,61.76
2023-03-16T20:33:34.955Z,62.19
2023-03-16T20:36:01.858Z,62.41
2023-03-16T20:38:28.983Z,62.91
2023-03-16T20:40:56.027Z,62.58
2023-03-16T20:43:26.316Z,62.43
2023-03-16T20:45:55.519Z,61.93
2023-03-16T20:48:25.458Z,62.24
2023-03-16T20:50:53.414Z,62.83
2023-03-16T20:53:20.713Z,62.33
2023-03-16T20:55:48.740Z,62.54
2023-03-16T20:58:25.247Z,63.07
2023-03-16T21:00:55.782Z,62.63
2023-03-16T21:03:26.272Z,63.00
2023-03-16T21:05:54.484Z,63.26
2023-03-16T21:08:21.608Z,63.40
2023-03-16T21:10:51.198Z,63.66
2023-03-16T21:13:20.375Z,63.60
2023-03-16T21:15:50.035Z,63.72
2023-03-16T21:18:20.093Z,63.66
2023-03-16T21:20:48.929Z,63.83
2023-03-16T21:23:21.620Z,64.11
2023-03-16T21:26:00.618Z,64.62
2023-03-16T21:28:29.598Z,64.06
2023-03-16T21:30:57.982Z,64.37
2023-03-16T21:33:37.259Z,64.71
2023-03-16T21:36:08.169Z,64.97
2023-03-16T21:38:34.823Z,64.84
2023-03-16T21:41:01.712Z,65.05
2023-03-16T21:43:28.726Z,65.07
2023-03-16T21:45:56.983Z,64.77
2023-03-16T21:48:41.170Z,65.64
2023-03-16T21:51:16.741Z,65.74
2023-03-16T21:53:43.839Z,66.24
2023-03-16T21:56:15.416Z,66.21
2023-03-16T21:58:43.362Z,66.70
2023-03-16T22:02:00.738Z,66.25
2023-03-16T22:04:28.409Z,66.87
2023-03-16T22:06:55.275Z,66.86
2023-03-16T22:09:30.011Z,67.18
2023-03-16T22:11:56.835Z,67.25
2023-03-16T22:14:23.445Z,67.08
2023-03-16T22:16:50.401Z,67.02
2023-03-16T22:19:18.145Z,67.12
2023-03-16T22:21:45.110Z,66.82
2023-03-16T22:24:34.500Z,66.74
2023-03-16T22:27:01.537Z,66.86
2023-03-16T22:29:31.714Z,66.35
2023-03-16T22:32:04.346Z,66.32
2023-03-16T22:34:56.274Z,66.46
2023-03-16T22:37:27.143Z,66.48
2023-03-16T22:39:57.307Z,66.53
2023-03-16T22:42:32.788Z,66.27
2023-03-16T22:44:59.859Z,66.74
2023-03-16T22:47:28.851Z,66.78
2023-03-16T22:49:56.332Z,66.66
2023-03-16T22:52:28.166Z,66.90
2023-03-16T22:54:55.406Z,66.65
2023-03-16T22:57:22.847Z,66.72
2023-03-16T22:59:51.130Z,66.97
2023-03-16T23:02:30.700Z,67.01
2023-03-16T23:05:28.179Z,66.89
2023-03-16T23:07:56.233Z,66.97
2023-03-16T23:10:25.755Z,67.20
2023-03-16T23:12:54.025Z,66.98
2023-03-16T23:15:24.967Z,67.26
2023-03-16T23:17:52.542Z,67.02
2023-03-16T23:20:32.663Z,67.25
2023-03-16T23:22:59.819Z,67.82
2023-03-16T23:25:26.495Z,67.40
2023-03-16T23:27:53.369Z,67.20
2023-03-16T23:30:23.422Z,67.75
2023-03-16T23:32:52.276Z,68.12
2023-03-16T23:35:28.325Z,68.09
2023-03-16T23:37:55.773Z,67.79
2023-03-16T23:40:25.152Z,67.20
2023-03-16T23:42:53.984Z,66.64
2023-03-16T23:45:38.434Z,67.22
2023-03-16T23:48:07.692Z,67.22
2023-03-16T23:50:36.672Z,67.08
2023-03-16T23:53:03.734Z,66.73
2023-03-16T23:55:30.370Z,66.93
2023-03-16T23:57:57.043Z,66.48
